Time;durP1;ratioP1;P1;durP2;ratioP2;P2;SDS_P1;SDS_P2;PMS_P1;PMS_P2;Temp;Humidity;BMP_temperature;BMP_pressure;BME280_temperature;BME280_humidity;BME280_pressure;Samples;Min_cycle;Max_cycle;Signal;HPM_P1;HPM_P2
2023/08/18 00:00:49;;;;;;;5.65;2.13;;;;;;;;;;5030634;28;20059;-82
2023/08/18 00:03:15;;;;;;;2.80;1.80;;;20.80;91.80;;;;;;5031355;28;20501;-81
2023/08/18 00:05:41;;;;;;;2.58;1.40;;;;;;;;;;5030879;28;20025;-82
2023/08/18 00:08:07;;;;;;;4.45;1.70;;;;;;;;;;5039219;28;20474;-82
2023/08/18 00:10:33;;;;;;;3.15;1.52;;;;;;;;;;5048764;28;20085;-82
2023/08/18 00:12:59;;;;;;;4.82;2.65;;;;;;;;;;5031022;28;20116;-82
2023/08/18 00:15:25;;;;;;;2.85;1.63;;;;;;;;;;5030728;28;20478;-81
2023/08/18 00:17:51;;;;;;;3.75;2.13;;;;;;;;;;5030871;28;20478;-81
2023/08/18 00:20:17;;;;;;;4.10;1.73;;;;;;;;;;5030739;28;20045;-81
2023/08/18 00:22:43;;;;;;;6.25;1.55;;;;;;;;;;5046160;28;20079;-82
2023/08/18 00:25:10;;;;;;;2.78;1.95;;;20.40;87.70;;;;;;5043860;28;20505;-82
2023/08/18 00:27:37;;;;;;;3.55;1.90;;;;;;;;;;5038840;28;20067;-81
2023/08/18 00:30:04;;;;;;;;;;;20.70;86.80;;;;;;5047928;28;20093;-82
2023/08/18 00:32:31;;;;;;;2.60;1.58;;;;;;;;;;5039459;28;19916;-81
2023/08/18 00:34:57;;;;;;;3.33;2.13;;;;;;;;;;5049921;28;20465;-82
2023/08/18 00:37:23;;;;;;;3.88;1.40;;;;;;;;;;5046467;28;20122;-81
2023/08/18 00:39:49;;;;;;;5.85;2.15;;;;;;;;;;5049786;28;20102;-82
2023/08/18 00:42:15;;;;;;;2.53;1.70;;;;;;;;;;5050291;28;20068;-81
2023/08/18 00:44:41;;;;;;;5.70;2.00;;;;;;;;;;5048724;28;20475;-82
2023/08/18 00:47:07;;;;;;;2.47;1.67;;;;;;;;;;5040643;28;20025;-82
2023/08/18 00:49:34;;;;;;;2.47;1.33;;;;;;;;;;5039796;28;20144;-82
2023/08/18 00:52:00;;;;;;;6.47;2.20;;;;;;;;;;5022431;28;20506;-82
2023/08/18 00:54:27;;;;;;;3.05;1.83;;;20.20;90.00;;;;;;5046560;28;20452;-81
2023/08/18 00:56:53;;;;;;;4.30;3.13;;;;;;;;;;5050075;28;20571;-81
2023/08/18 00:59:19;;;;;;;6.80;1.63;;;;;;;;;;5046327;28;20029;-82
2023/08/18 01:01:45;;;;;;;2.45;1.50;;;;;;;;;;5039097;28;20120;-81
2023/08/18 01:04:12;;;;;;;2.78;1.80;;;20.20;89.80;;;;;;5043400;28;20127;-82
2023/08/18 01:06:39;;;;;;;2.85;1.58;;;;;;;;;;5049316;28;20064;-81
2023/08/18 01:09:06;;;;;;;7.85;2.08;;;;;;;;;;5048330;28;20036;-81
2023/08/18 01:12:04;;;;;;;2.45;1.67;;;20.10;90.40;;;;;;5049114;28;20490;-81
2023/08/18 01:14:30;;;;;;;3.08;2.00;;;;;;;;;;5026296;28;20037;-81
2023/08/18 01:17:01;;;;;;;4.18;1.80;;;19.90;90.50;;;;;;5047433;28;20044;-81
2023/08/18 01:19:28;;;;;;;2.28;1.70;;;20.00;90.40;;;;;;5047666;28;20025;-81
2023/08/18 01:21:57;;;;;;;3.13;1.65;;;20.10;89.40;;;;;;5045191;28;20430;-81
2023/08/18 01:24:26;;;;;;;3.03;1.88;;;;;;;;;;5048569;28;20021;-81
2023/08/18 01:26:52;;;;;;;5.18;2.38;;;;;;;;;;5035126;28;20421;-81
2023/08/18 01:29:20;;;;;;;5.18;1.95;;;19.70;89.50;;;;;;5030631;28;20026;-82
2023/08/18 01:31:50;;;;;;;3.05;2.15;;;19.60;90.00;;;;;;5029242;28;20028;-82
2023/08/18 01:34:18;;;;;;;7.97;1.75;;;19.60;90.20;;;;;;5039116;28;20052;-82
2023/08/18 01:36:44;;;;;;;8.25;2.17;;;;;;;;;;5037175;28;20534;-82
2023/08/18 01:39:12;;;;;;;4.50;2.27;;;19.60;90.40;;;;;;5029358;28;20029;-81
2023/08/18 01:41:40;;;;;;;2.47;1.60;;;19.60;90.40;;;;;;5028972;28;20636;-82
2023/08/18 01:44:06;;;;;;;5.20;2.47;;;19.50;90.70;;;;;;5029258;28;20040;-81
2023/08/18 01:46:32;;;;;;;2.38;1.83;;;;;;;;;;5032680;28;20024;-82
2023/08/18 01:48:59;;;;;;;2.88;2.30;;;;;;;;;;5048653;28;20596;-81
2023/08/18 01:51:25;;;;;;;3.17;1.80;;;;;;;;;;5048590;28;20025;-82
2023/08/18 01:53:51;;;;;;;3.13;2.10;;;;;;;;;;5041052;28;20170;-81
2023/08/18 01:56:17;;;;;;;3.22;2.25;;;;;;;;;;5029077;28;20033;-81
2023/08/18 01:58:43;;;;;;;3.40;2.00;;;;;;;;;;5043697;28;20025;-82
2023/08/18 02:01:09;;;;;;;4.78;2.20;;;;;;;;;;5029365;28;20098;-82
2023/08/18 02:03:35;;;;;;;4.22;2.13;;;;;;;;;;5028664;28;20026;-82
2023/08/18 02:06:01;;;;;;;4.22;2.50;;;;;;;;;;5029926;28;20029;-81
2023/08/18 02:08:27;;;;;;;8.07;2.58;;;;;;;;;;5029126;28;20048;-81
2023/08/18 02:10:53;;;;;;;2.60;1.80;;;;;;;;;;5027598;28;20467;-82
2023/08/18 02:13:19;;;;;;;2.50;1.90;;;;;;;;;;5029487;28;20025;-82
2023/08/18 02:15:46;;;;;;;3.08;2.30;;;19.20;91.30;;;;;;5028860;28;20458;-81
2023/08/18 02:18:12;;;;;;;3.40;2.20;;;;;;;;;;5029792;28;20036;-82
2023/08/18 02:20:38;;;;;;;2.53;1.98;;;;;;;;;;5028918;28;20040;-82
2023/08/18 02:23:04;;;;;;;3.67;2.08;;;;;;;;;;5029671;28;20017;-82
2023/08/18 02:25:30;;;;;;;2.72;2.00;;;;;;;;;;5029658;28;20033;-81
2023/08/18 02:27:56;;;;;;;5.65;2.03;;;;;;;;;;5029281;28;20512;-82
2023/08/18 02:30:22;;;;;;;6.50;2.50;;;;;;;;;;5029882;28;20036;-82
2023/08/18 02:32:48;;;;;;;2.08;1.50;;;;;;;;;;5029409;28;20110;-82
2023/08/18 02:35:14;;;;;;;2.70;1.77;;;;;;;;;;5029670;28;20064;-81
2023/08/18 02:37:40;;;;;;;4.40;2.97;;;;;;;;;;5030947;28;20449;-82
2023/08/18 02:40:08;;;;;;;5.93;1.75;;;19.20;98.30;;;;;;5023512;28;20030;-82
2023/08/18 02:42:35;;;;;;;3.70;2.45;;;;;;;;;;5029648;28;20028;-82
2023/08/18 02:45:01;;;;;;;4.73;1.97;;;;;;;;;;5028896;28;20026;-81
2023/08/18 02:47:27;;;;;;;6.75;1.95;;;;;;;;;;5028739;28;20037;-81
2023/08/18 02:49:53;;;;;;;2.60;1.80;;;;;;;;;;5029189;28;20100;-81
2023/08/18 02:52:19;;;;;;;2.65;1.98;;;;;;;;;;5029022;28;20029;-81
2023/08/18 02:54:45;;;;;;;2.20;1.92;;;;;;;;;;5043804;28;20087;-81
2023/08/18 02:57:11;;;;;;;7.53;2.85;;;;;;;;;;5028852;28;20120;-81
2023/08/18 02:59:38;;;;;;;5.03;2.50;;;;;;;;;;5028100;28;20547;-81
2023/08/18 03:02:04;;;;;;;6.80;2.08;;;;;;;;;;5028831;28;20113;-82
2023/08/18 03:04:30;;;;;;;5.68;2.58;;;;;;;;;;5034763;28;20612;-82
2023/08/18 03:06:56;;;;;;;3.40;2.25;;;;;;;;;;5048280;28;20033;-81
2023/08/18 03:09:22;;;;;;;3.22;1.67;;;;;;;;;;5039817;28;20021;-81
2023/08/18 03:11:48;;;;;;;4.88;1.95;;;;;;;;;;5031488;28;20398;-81
2023/08/18 03:14:14;;;;;;;2.60;2.38;;;;;;;;;;5019375;28;20553;-81
2023/08/18 03:16:41;;;;;;;3.67;1.63;;;;;;;;;;5045265;28;20037;-81
2023/08/18 03:19:07;;;;;;;3.37;1.70;;;;;;;;;;5025696;28;20053;-81
2023/08/18 03:21:33;;;;;;;2.15;1.50;;;18.30;99.60;;;;;;5051179;28;20134;-82
2023/08/18 03:23:59;;;;;;;3.45;1.98;;;;;;;;;;5030749;28;20027;-82
2023/08/18 03:26:25;;;;;;;6.00;2.28;;;;;;;;;;5037941;28;20034;-81
2023/08/18 03:28:52;;;;;;;3.55;2.17;;;;;;;;;;5050007;28;20033;-81
2023/08/18 03:31:18;;;;;;;2.45;2.08;;;;;;;;;;5050446;28;20112;-81
2023/08/18 03:33:44;;;;;;;5.25;2.50;;;;;;;;;;5031312;28;20053;-81
2023/08/18 03:36:10;;;;;;;2.28;2.03;;;;;;;;;;5044347;28;20123;-81
2023/08/18 03:38:36;;;;;;;3.70;1.77;;;;;;;;;;5031787;28;20037;-81
2023/08/18 03:41:04;;;;;;;4.65;1.73;;;18.30;93.60;;;;;;5030996;28;20029;-82
2023/08/18 03:43:31;;;;;;;3.22;2.25;;;;;;;;;;5031647;28;20022;-81
2023/08/18 03:45:59;;;;;;;4.38;2.38;;;18.30;93.60;;;;;;5030974;28;20129;-82
2023/08/18 03:48:25;;;;;;;2.78;1.85;;;;;;;;;;5031300;28;20029;-81
2023/08/18 03:50:51;;;;;;;4.50;1.77;;;;;;;;;;5023061;28;20030;-81
2023/08/18 03:53:17;;;;;;;2.30;1.77;;;;;;;;;;5030149;28;20394;-81
2023/08/18 03:55:43;;;;;;;3.30;2.10;;;;;;;;;;5031498;28;20055;-82
2023/08/18 03:58:09;;;;;;;3.10;2.22;;;;;;;;;;5031768;28;20025;-81
2023/08/18 04:00:35;;;;;;;1.75;1.52;;;;;;;;;;5031890;28;20029;-81
2023/08/18 04:03:03;;;;;;;2.33;1.75;;;;;;;;;;5046692;28;20017;-81
2023/08/18 04:05:29;;;;;;;2.22;1.80;;;;;;;;;;5031963;28;20080;-82
2023/08/18 04:07:55;;;;;;;3.10;2.17;;;;;;;;;;5046541;28;20034;-82
2023/08/18 04:10:21;;;;;;;3.55;2.30;;;;;;;;;;5031812;28;20079;-82
2023/08/18 04:12:47;;;;;;;5.38;1.88;;;;;;;;;;5032084;28;20048;-81
2023/08/18 04:15:14;;;;;;;3.55;2.47;;;;;;;;;;5032445;28;20032;-81
2023/08/18 04:17:40;;;;;;;3.20;2.22;;;;;;;;;;5032008;28;20056;-82
2023/08/18 04:20:08;;;;;;;2.72;1.48;;;17.90;93.30;;;;;;5032595;28;20453;-81
2023/08/18 04:22:34;;;;;;;3.92;1.98;;;;;;;;;;5031506;28;20477;-81
2023/08/18 04:25:00;;;;;;;7.45;2.22;;;;;;;;;;5033208;28;20096;-81
2023/08/18 04:27:26;;;;;;;2.47;2.08;;;;;;;;;;5032683;28;20021;-81
2023/08/18 04:29:52;;;;;;;5.35;1.98;;;18.00;99.70;;;;;;5033282;28;20395;-82
2023/08/18 04:32:18;;;;;;;3.42;1.67;;;;;;;;;;5031763;28;20020;-81
2023/08/18 04:34:45;;;;;;;2.17;1.83;;;;;;;;;;5033797;28;20025;-82
2023/08/18 04:37:10;;;;;;;3.87;2.63;;;;;;;;;;5036917;28;20038;-82
2023/08/18 04:39:36;;;;;;;3.55;2.03;;;;;;;;;;5033639;28;20763;-81
2023/08/18 04:42:02;;;;;;;2.63;2.20;;;;;;;;;;5031851;28;20033;-82
2023/08/18 04:44:28;;;;;;;5.15;2.63;;;;;;;;;;5032803;28;20481;-81
2023/08/18 04:46:54;;;;;;;2.40;1.55;;;;;;;;;;5035180;28;20034;-82
2023/08/18 04:49:20;;;;;;;1.70;1.20;;;;;;;;;;5043767;28;20132;-81
2023/08/18 04:51:47;;;;;;;5.38;1.77;;;;;;;;;;5049880;28;20469;-82
2023/08/18 04:54:13;;;;;;;4.95;1.65;;;;;;;;;;5047906;28;20028;-81
2023/08/18 04:56:39;;;;;;;4.10;2.15;;;;;;;;;;5038141;28;20530;-82
2023/08/18 04:59:04;;;;;;;3.70;1.70;;;;;;;;;;5035363;28;20025;-82
2023/08/18 05:01:31;;;;;;;3.20;1.75;;;;;;;;;;5038125;28;20036;-81
2023/08/18 05:03:58;;;;;;;3.55;1.70;;;;;;;;;;5048910;28;20031;-82
2023/08/18 05:06:24;;;;;;;3.33;1.70;;;;;;;;;;5048661;28;20029;-81
2023/08/18 05:08:50;;;;;;;2.25;1.23;;;;;;;;;;5048869;28;20040;-82
2023/08/18 05:11:16;;;;;;;4.35;1.73;;;;;;;;;;5049136;28;20394;-80
2023/08/18 05:13:42;;;;;;;7.22;1.55;;;;;;;;;;5047489;28;20486;-82
2023/08/18 05:16:08;;;;;;;6.15;1.85;;;;;;;;;;5046956;28;20036;-82
2023/08/18 05:18:34;;;;;;;2.67;1.50;;;;;;;;;;5030251;28;20191;-81
2023/08/18 05:21:02;;;;;;;2.22;1.70;;;18.10;91.20;;;;;;5043619;28;20022;-81
2023/08/18 05:23:29;;;;;;;2.58;1.80;;;18.30;91.30;;;;;;5043688;28;20039;-81
2023/08/18 05:25:56;;;;;;;3.17;1.52;;;;;;;;;;5041391;28;20029;-82
2023/08/18 05:28:23;;;;;;;6.63;2.33;;;18.50;90.30;;;;;;5043569;28;20486;-81
2023/08/18 05:30:49;;;;;;;2.80;1.40;;;18.50;90.20;;;;;;5040011;28;20029;-81
2023/08/18 05:33:16;;;;;;;3.97;2.30;;;;;;;;;;5042784;28;20518;-81
2023/08/18 05:35:42;;;;;;;2.15;1.58;;;;;;;;;;5048961;28;20433;-82
2023/08/18 05:38:11;;;;;;;2.53;1.77;;;;;;;;;;5047428;28;20033;-81
2023/08/18 05:40:49;;;;;;;3.90;2.05;;;19.00;86.90;;;;;;5047676;28;20057;-84
2023/08/18 05:43:16;;;;;;;3.83;1.70;;;;;;;;;;5046557;28;20060;-82
2023/08/18 05:45:44;;;;;;;2.80;1.30;;;19.50;86.20;;;;;;5036920;28;20037;-82
2023/08/18 05:48:11;;;;;;;1.88;1.27;;;;;;;;;;5025384;28;20029;-83
2023/08/18 05:50:37;;;;;;;2.08;1.70;;;;;;;;;;5029941;28;20453;-85
2023/08/18 05:53:03;;;;;;;3.55;1.80;;;19.80;81.80;;;;;;5032075;28;20382;-85
2023/08/18 05:55:29;;;;;;;2.50;1.97;;;;;;;;;;5032639;28;20080;-84
2023/08/18 05:58:00;;;;;;;2.28;1.50;;;20.10;80.20;;;;;;5031501;28;20025;-84
2023/08/18 06:00:26;;;;;;;3.10;1.60;;;;;;;;;;5032839;28;20025;-85
2023/08/18 06:02:52;;;;;;;2.35;1.42;;;;;;;;;;5026630;28;20096;-85
2023/08/18 06:05:18;;;;;;;2.00;1.40;;;;;;;;;;5033313;28;20021;-85
2023/08/18 06:07:44;;;;;;;3.30;1.80;;;;;;;;;;5030930;28;20025;-85
2023/08/18 06:10:11;;;;;;;5.97;2.00;;;;;;;;;;5040357;28;20040;-85
2023/08/18 06:12:37;;;;;;;3.38;1.92;;;;;;;;;;5031132;28;20036;-84
2023/08/18 06:15:04;;;;;;;4.95;1.95;;;;;;;;;;5039026;28;20150;-84
2023/08/18 06:17:30;;;;;;;2.83;1.70;;;;;;;;;;5028058;28;20029;-85
2023/08/18 06:19:56;;;;;;;2.88;1.92;;;;;;;;;;5037690;28;20040;-83
2023/08/18 06:22:22;;;;;;;4.30;1.98;;;;;;;;;;5040728;28;20037;-84
2023/08/18 06:24:48;;;;;;;2.50;1.80;;;;;;;;;;5030090;28;20036;-87
2023/08/18 06:27:14;;;;;;;3.97;1.85;;;;;;;;;;5038129;28;20025;-87
2023/08/18 06:29:40;;;;;;;5.47;1.48;;;;;;;;;;5038694;28;20494;-87
2023/08/18 06:32:06;;;;;;;2.90;1.95;;;;;;;;;;5048638;28;20108;-87
2023/08/18 06:34:32;;;;;;;3.13;1.70;;;;;;;;;;5042428;28;20052;-86
2023/08/18 06:36:58;;;;;;;2.30;1.40;;;;;;;;;;5028609;28;20414;-87
2023/08/18 06:39:24;;;;;;;3.35;1.98;;;;;;;;;;5034519;28;20056;-85
2023/08/18 06:41:50;;;;;;;1.65;1.17;;;;;;;;;;5046250;28;20107;-85
2023/08/18 06:44:16;;;;;;;1.65;1.10;;;;;;;;;;5034801;28;20537;-85
2023/08/18 06:46:42;;;;;;;3.40;1.55;;;;;;;;;;5031143;28;20026;-85
2023/08/18 06:49:08;;;;;;;15.07;1.77;;;;;;;;;;5031656;28;20033;-86
2023/08/18 06:51:34;;;;;;;6.47;1.70;;;;;;;;;;5042000;28;20036;-87
2023/08/18 06:54:00;;;;;;;1.92;1.20;;;;;;;;;;5028350;28;20037;-77
2023/08/18 06:56:26;;;;;;;2.88;1.67;;;;;;;;;;5023017;28;20429;-76
2023/08/18 06:58:52;;;;;;;5.32;1.48;;;;;;;;;;5036250;28;20022;-76
2023/08/18 07:01:19;;;;;;;2.53;1.48;;;;;;;;;;5031205;28;20104;-77
2023/08/18 07:03:45;;;;;;;3.70;1.53;;;;;;;;;;5035943;28;20132;-76
2023/08/18 07:06:11;;;;;;;2.10;1.33;;;;;;;;;;5033462;28;20295;-79
2023/08/18 07:08:37;;;;;;;4.93;2.00;;;37.70;50.80;;;;;;5035963;28;20025;-77
2023/08/18 07:11:02;;;;;;;2.53;1.63;;;41.40;43.70;;;;;;5037137;28;20288;-79
2023/08/18 07:13:29;;;;;;;2.53;1.37;;;;;;;;;;5027461;28;20064;-78
2023/08/18 07:15:54;;;;;;;2.55;1.58;;;;;;;;;;5040149;28;20041;-78
2023/08/18 07:18:20;;;;;;;6.10;1.52;;;48.60;31.30;;;;;;5043581;28;20063;-79
2023/08/18 07:20:46;;;;;;;5.45;1.63;;;49.10;30.00;;;;;;5038450;28;20017;-79
2023/08/18 07:23:12;;;;;;;4.07;1.20;;;;;;;;;;5037652;28;20053;-78
2023/08/18 07:25:42;;;;;;;;;;;50.30;27.80;;;;;;5038266;28;20068;-78
2023/08/18 07:28:08;;;;;;;1.40;1.30;;;;;;;;;;5026297;28;19913;-78
2023/08/18 07:30:34;;;;;;;8.63;1.80;;;;;;;;;;5027652;28;20057;-76
2023/08/18 07:33:00;;;;;;;1.52;1.13;;;;;;;;;;5025633;28;20063;-77
2023/08/18 07:35:26;;;;;;;2.30;1.40;;;;;;;;;;5029017;28;20053;-79
2023/08/18 07:37:53;;;;;;;6.57;2.08;;;;;;;;;;5028920;28;20033;-81
2023/08/18 07:40:19;;;;;;;4.18;1.02;;;;;;;;;;5027636;28;20049;-80
2023/08/18 07:42:45;;;;;;;2.78;1.33;;;;;;;;;;5031240;28;20474;-82
2023/08/18 07:45:12;;;;;;;3.65;1.40;;;;;;;;;;5035591;28;20609;-85
2023/08/18 07:47:38;;;;;;;0.95;0.85;;;54.10;23.70;;;;;;5032394;28;20032;-83
2023/08/18 07:50:09;;;;;;;2.22;1.20;;;52.00;24.00;;;;;;5030243;28;20935;-81
2023/08/18 07:52:35;;;;;;;2.67;1.05;;;;;;;;;;5035976;28;20032;-81
2023/08/18 07:55:05;;;;;;;1.63;1.23;;;54.40;23.50;;;;;;5031741;28;20502;-81
2023/08/18 07:57:31;;;;;;;1.67;1.20;;;;;;;;;;5031206;28;20112;-82
2023/08/18 07:59:57;;;;;;;2.75;1.77;;;57.50;26.30;;;;;;5031022;28;20116;-82
2023/08/18 08:02:23;;;;;;;2.05;1.05;;;;;;;;;;5025414;28;20116;-82
2023/08/18 08:04:50;;;;;;;3.35;1.80;;;52.60;21.40;;;;;;5029984;28;20033;-84
2023/08/18 08:07:16;;;;;;;4.05;1.27;;;55.90;27.20;;;;;;5030599;28;20093;-83
2023/08/18 08:09:42;;;;;;;3.38;1.05;;;;;;;;;;5027711;28;20081;-84
2023/08/18 08:12:08;;;;;;;5.40;1.20;;;;;;;;;;5040819;28;20020;-93
2023/08/18 08:14:34;;;;;;;1.70;1.20;;;;;;;;;;5044365;28;20033;-91
2023/08/18 08:17:00;;;;;;;1.48;1.15;;;;;;;;;;5038923;28;20070;-84
2023/08/18 08:19:26;;;;;;;9.63;1.45;;;51.30;27.90;;;;;;5034913;28;20017;-82
2023/08/18 08:21:52;;;;;;;2.45;1.10;;;;;;;;;;5034614;28;20029;-82
2023/08/18 08:24:18;;;;;;;1.67;0.88;;;;;;;;;;5034520;28;20494;-81
2023/08/18 08:26:44;;;;;;;3.42;0.93;;;;;;;;;;5037542;28;20875;-86
2023/08/18 08:29:10;;;;;;;3.22;0.95;;;;;;;;;;5032650;28;20053;-84
2023/08/18 08:31:36;;;;;;;5.20;1.30;;;48.00;24.80;;;;;;5041532;28;20049;-83
2023/08/18 08:34:03;;;;;;;2.10;1.20;;;;;;;;;;5034372;28;20045;-84
2023/08/18 08:36:32;;;;;;;2.28;1.15;;;;;;;;;;5032264;28;20040;-83
2023/08/18 08:38:59;;;;;;;19.33;2.53;;;;;;;;;;5025842;28;20022;-80
2023/08/18 08:41:25;;;;;;;2.97;1.48;;;;;;;;;;5031202;28;20137;-80
2023/08/18 08:43:51;;;;;;;1.90;1.08;;;;;;;;;;5028111;28;20037;-81
2023/08/18 08:46:17;;;;;;;2.88;1.23;;;;;;;;;;5032301;28;20090;-81
2023/08/18 08:48:46;;;;;;;1.42;1.33;;;51.70;21.00;;;;;;5028267;28;20108;-81
2023/08/18 08:51:12;;;;;;;1.65;0.98;;;;;;;;;;5030602;28;20022;-80
2023/08/18 08:53:47;;;;;;;3.17;1.08;;;53.80;23.50;;;;;;5033940;28;20025;-82
2023/08/18 08:56:16;;;;;;;1.45;1.15;;;54.70;21.40;;;;;;5038947;28;20053;-83
2023/08/18 08:58:42;;;;;;;3.20;0.90;;;;;;;;;;5029008;28;20082;-82
2023/08/18 09:01:08;;;;;;;2.60;1.25;;;;;;;;;;5034910;28;20478;-82
2023/08/18 09:03:34;;;;;;;7.13;1.30;;;;;;;;;;5036549;28;20026;-81
2023/08/18 09:06:00;;;;;;;7.95;1.52;;;60.70;24.00;;;;;;5042797;28;20052;-83
2023/08/18 09:08:26;;;;;;;6.10;1.58;;;;;;;;;;5029136;28;20421;-81
2023/08/18 09:10:52;;;;;;;2.78;1.50;;;;;;;;;;5031745;28;20026;-85
2023/08/18 09:13:18;;;;;;;4.40;1.48;;;64.20;21.00;;;;;;5033332;28;20044;-84
2023/08/18 09:15:44;;;;;;;3.70;1.58;;;;;;;;;;5028961;28;20490;-85
2023/08/18 09:18:14;;;;;;;2.42;1.70;;;63.80;19.70;;;;;;5031655;28;20111;-89
2023/08/18 09:20:42;;;;;;;2.17;2.00;;;64.40;19.40;;;;;;5028461;28;20030;-81
2023/08/18 09:23:08;;;;;;;1.73;1.63;;;;;;;;;;5029405;28;20021;-81
2023/08/18 09:25:34;;;;;;;7.28;1.80;;;;;;;;;;5025630;28;20014;-81
2023/08/18 09:28:01;;;;;;;1.83;1.73;;;65.70;19.10;;;;;;5025613;28;20049;-81
2023/08/18 09:30:28;;;;;;;3.35;1.73;;;65.80;18.90;;;;;;5025540;28;20483;-80
2023/08/18 09:32:54;;;;;;;2.60;2.40;;;;;;;;;;5027905;28;20601;-80
2023/08/18 09:35:20;;;;;;;1.30;1.27;;;;;;;;;;5042750;28;21268;-81
2023/08/18 09:37:59;;;;;;;2.53;1.80;;;61.70;19.10;;;;;;5026753;28;20056;-80
2023/08/18 09:40:25;;;;;;;1.85;1.75;;;;;;;;;;5024668;28;20033;-80
2023/08/18 09:42:51;;;;;;;1.80;1.70;;;;;;;;;;5032220;28;20087;-80
2023/08/18 09:45:22;;;;;;;1.73;1.63;;;64.70;18.20;;;;;;5027614;28;20025;-81
2023/08/18 09:47:49;;;;;;;1.52;1.30;;;;;;;;;;5024537;28;20719;-81
2023/08/18 09:50:16;;;;;;;4.93;1.40;;;;;;;;;;5026073;28;20032;-81
2023/08/18 09:52:42;;;;;;;2.22;1.40;;;;;;;;;;5029744;28;20037;-81
2023/08/18 09:55:13;;;;;;;1.45;1.10;;;58.80;22.10;;;;;;5027047;28;20025;-80
2023/08/18 09:57:57;;;;;;;1.17;0.75;;;55.40;20.10;;;;;;5025492;28;20116;-81
2023/08/18 10:00:25;;;;;;;1.05;0.90;;;56.90;19.90;;;;;;5024274;28;20105;-81
2023/08/18 10:02:55;;;;;;;2.28;1.25;;;56.30;19.70;;;;;;5028594;28;20029;-80
2023/08/18 10:05:21;;;;;;;1.60;0.82;;;;;;;;;;5028658;28;20087;-82
2023/08/18 10:07:47;;;;;;;2.90;0.70;;;55.80;19.60;;;;;;5023989;28;20030;-81
2023/08/18 10:10:14;;;;;;;2.67;1.13;;;57.00;19.40;;;;;;5025644;28;20647;-80
2023/08/18 10:12:43;;;;;;;2.70;1.23;;;57.70;19.20;;;;;;5025724;28;20045;-80
2023/08/18 10:15:09;;;;;;;3.22;1.02;;;;;;;;;;5027751;28;20026;-80
2023/08/18 10:17:35;;;;;;;1.60;1.27;;;;;;;;;;5024626;28;20507;-80
2023/08/18 10:20:03;;;;;;;1.10;0.95;;;;;;;;;;5025205;28;20588;-81
2023/08/18 10:22:30;;;;;;;2.83;0.93;;;59.70;19.30;;;;;;5031389;28;20026;-80
2023/08/18 10:24:56;;;;;;;5.03;1.20;;;;;;;;;;5029020;28;20490;-81
2023/08/18 10:27:27;;;;;;;3.58;1.75;;;63.30;18.80;;;;;;5030606;28;20133;-81
2023/08/18 10:30:00;;;;;;;1.30;1.00;;;64.30;18.50;;;;;;5024664;28;20052;-81
2023/08/18 10:32:29;;;;;;;6.03;1.70;;;64.90;18.40;;;;;;5033246;28;20029;-81
2023/08/18 10:35:20;;;;;;;1.55;1.45;;;65.10;18.20;;;;;;5034520;28;20060;-81
2023/08/18 10:37:58;;;;;;;3.63;1.50;;;65.40;18.30;;;;;;5022516;28;20044;-81
2023/08/18 10:40:26;;;;;;;3.15;1.70;;;65.40;18.30;;;;;;5028708;28;20431;-81
2023/08/18 10:42:59;;;;;;;2.95;1.30;;;65.10;18.30;;;;;;5029710;28;20056;-82
2023/08/18 10:45:29;;;;;;;1.70;1.60;;;65.10;18.20;;;;;;5028357;28;20367;-80
2023/08/18 10:48:03;;;;;;;1.70;1.60;;;65.00;18.30;;;;;;5027432;28;20087;-82
2023/08/18 10:50:31;;;;;;;1.60;1.50;;;65.10;18.40;;;;;;5032782;28;20394;-81
2023/08/18 10:52:57;;;;;;;1.52;1.42;;;65.00;18.10;;;;;;5032158;28;20036;-80
2023/08/18 10:55:25;;;;;;;1.75;1.65;;;64.90;18.30;;;;;;5034084;28;20067;-81
2023/08/18 10:57:51;;;;;;;2.85;1.80;;;;;;;;;;5030779;28;20030;-81
2023/08/18 11:00:18;;;;;;;1.67;1.58;;;64.80;18.40;;;;;;5029740;28;20456;-80
2023/08/18 11:02:45;;;;;;;1.70;1.58;;;64.20;18.00;;;;;;5031274;28;20036;-81
2023/08/18 11:05:12;;;;;;;1.73;1.40;;;;;;;;;;5029772;28;20024;-81
2023/08/18 11:07:38;;;;;;;1.55;1.45;;;;;;;;;;5027788;28;20026;-81
2023/08/18 11:10:18;;;;;;;1.70;1.50;;;63.90;17.70;;;;;;5045465;28;20075;-81
2023/08/18 11:12:44;;;;;;;2.08;1.50;;;;;;;;;;5033632;28;20044;-80
2023/08/18 11:15:11;;;;;;;1.50;1.40;;;63.10;17.80;;;;;;5030709;28;20683;-81
2023/08/18 11:17:37;;;;;;;1.02;0.90;;;;;;;;;;5030101;28;20040;-81
2023/08/18 11:20:07;;;;;;;1.23;1.00;;;;;;;;;;5028092;28;20025;-80
2023/08/18 11:22:36;;;;;;;2.72;0.98;;;53.10;25.70;;;;;;5031499;28;20040;-81
2023/08/18 11:25:04;;;;;;;1.63;0.80;;;54.30;19.90;;;;;;5032382;28;20044;-80
2023/08/18 11:27:31;;;;;;;1.67;0.95;;;56.60;19.20;;;;;;5033047;28;20032;-81
2023/08/18 11:29:58;;;;;;;1.52;1.15;;;;;;;;;;5025519;28;20037;-80
2023/08/18 11:32:24;;;;;;;2.90;0.95;;;;;;;;;;5029976;28;20022;-80
2023/08/18 11:34:50;;;;;;;3.13;0.85;;;;;;;;;;5029262;28;20037;-80
2023/08/18 11:37:20;;;;;;;1.98;1.00;;;59.30;18.70;;;;;;5032655;28;20061;-80
2023/08/18 11:39:46;;;;;;;3.53;1.13;;;57.50;18.60;;;;;;5027107;28;20116;-81
2023/08/18 11:42:12;;;;;;;2.72;0.77;;;55.90;19.00;;;;;;5035193;28;20396;-81
2023/08/18 11:44:38;;;;;;;2.88;1.45;;;;;;;;;;5030377;28;20491;-80
2023/08/18 11:47:11;;;;;;;3.40;0.77;;;50.40;20.30;;;;;;5030010;28;20025;-80
2023/08/18 11:49:37;;;;;;;1.63;0.90;;;;;;;;;;5026756;28;20025;-81
2023/08/18 11:52:04;;;;;;;0.98;0.75;;;45.20;22.20;;;;;;5028105;28;20038;-79
2023/08/18 11:54:35;;;;;;;1.27;1.00;;;42.80;22.80;;;;;;5030360;28;20033;-79
2023/08/18 11:57:05;;;;;;;1.35;1.13;;;41.20;23.70;;;;;;5030731;28;20125;-80
2023/08/18 11:59:32;;;;;;;3.88;1.52;;;;;;;;;;5024796;28;20322;-82
2023/08/18 12:02:04;;;;;;;1.65;0.93;;;;;;;;;;5029015;28;20486;-81
2023/08/18 12:04:31;;;;;;;2.20;1.10;;;39.60;25.30;;;;;;5032534;28;20025;-81
2023/08/18 12:06:58;;;;;;;1.85;0.80;;;39.40;25.70;;;;;;5029568;28;20036;-79
2023/08/18 12:09:24;;;;;;;1.58;1.23;;;39.30;25.80;;;;;;5026421;28;20033;-81
2023/08/18 12:11:51;;;;;;;2.20;1.42;;;;;;;;;;5027431;28;20029;-81
2023/08/18 12:14:17;;;;;;;4.40;1.20;;;;;;;;;;5031604;28;20032;-80
2023/08/18 12:16:44;;;;;;;;;;;38.40;26.60;;;;;;5033434;28;20033;-84
2023/08/18 12:19:11;;;;;;;1.13;0.93;;;38.40;26.30;;;;;;5025941;28;19991;-84
2023/08/18 12:21:37;;;;;;;1.27;1.08;;;;;;;;;;5028868;28;20131;-84
2023/08/18 12:24:04;;;;;;;1.85;1.08;;;38.30;35.20;;;;;;5029120;28;20022;-81
2023/08/18 12:26:31;;;;;;;5.00;1.45;;;38.10;26.30;;;;;;5035277;28;20490;-82
2023/08/18 12:28:57;;;;;;;1.52;1.05;;;;;;;;;;5025263;28;20034;-84
2023/08/18 12:31:24;;;;;;;1.70;1.00;;;;;;;;;;5030925;28;20036;-83
2023/08/18 12:33:53;;;;;;;2.20;0.95;;;;;;;;;;5029989;28;20060;-83
2023/08/18 12:36:19;;;;;;;1.65;1.15;;;;;;;;;;5029806;28;20065;-84
2023/08/18 12:38:48;;;;;;;2.38;1.27;;;38.20;26.50;;;;;;5026434;28;20107;-84
2023/08/18 12:41:14;;;;;;;3.15;1.15;;;;;;;;;;5030251;28;20131;-83
2023/08/18 12:43:40;;;;;;;;;;;38.30;26.00;;;;;;5028203;28;20108;-83
2023/08/18 12:46:06;;;;;;;;;;;38.30;26.70;;;;;;5029203;28;19956;-81
2023/08/18 12:48:31;;;;;;;;;;;38.20;26.50;;;;;;5025046;28;19941;-82
2023/08/18 12:50:57;;;;;;;2.17;1.33;;;38.10;35.80;;;;;;5029408;28;19905;-81
2023/08/18 12:53:23;;;;;;;1.90;1.33;;;;;;;;;;5028138;28;20029;-83
2023/08/18 12:55:49;;;;;;;1.55;0.90;;;;;;;;;;5027229;28;20033;-82
2023/08/18 12:58:15;;;;;;;1.73;1.48;;;;;;;;;;5026000;28;20076;-82
2023/08/18 13:00:41;;;;;;;1.80;1.00;;;;;;;;;;5027964;28;20032;-81
2023/08/18 13:03:07;;;;;;;1.52;1.30;;;;;;;;;;5030073;28;20033;-82
2023/08/18 13:05:33;;;;;;;2.28;1.75;;;;;;;;;;5031668;28;20029;-82
2023/08/18 13:07:59;;;;;;;3.15;1.83;;;;;;;;;;5029981;28;20391;-83
2023/08/18 13:10:25;;;;;;;3.35;1.20;;;;;;;;;;5027908;28;20033;-81
2023/08/18 13:12:51;;;;;;;1.83;1.17;;;;;;;;;;5034043;28;20032;-83
2023/08/18 13:15:17;;;;;;;3.50;1.58;;;;;;;;;;5031041;28;20044;-80
2023/08/18 13:17:43;;;;;;;4.88;1.52;;;;;;;;;;5028944;28;20053;-80
2023/08/18 13:20:10;;;;;;;3.95;1.20;;;;;;;;;;5024418;28;20041;-80
2023/08/18 13:22:37;;;;;;;1.65;1.38;;;;;;;;;;5028754;28;20167;-80
2023/08/18 13:25:14;;;;;;;2.40;1.52;;;36.20;28.10;;;;;;5030063;28;20022;-79
2023/08/18 13:27:42;;;;;;;2.22;1.23;;;36.30;28.20;;;;;;5031491;28;20041;-78
2023/08/18 13:30:09;;;;;;;2.55;1.58;;;36.40;27.90;;;;;;5026017;28;20028;-78
2023/08/18 13:32:35;;;;;;;2.67;1.40;;;;;;;;;;5027055;28;20029;-80
2023/08/18 13:35:01;;;;;;;;;;;37.30;28.10;;;;;;5030945;28;20025;-82
2023/08/18 13:37:27;;;;;;;2.70;1.20;;;;;;;;;;5029692;28;19948;-81
2023/08/18 13:39:52;;;;;;;2.22;1.02;;;38.40;35.40;;;;;;5023590;28;20048;-81
2023/08/18 13:42:18;;;;;;;3.63;1.27;;;;;;;;;;5026895;28;20072;-80
2023/08/18 13:44:44;;;;;;;5.90;0.93;;;;;;;;;;5030410;28;20067;-80
2023/08/18 13:47:10;;;;;;;1.85;1.45;;;;;;;;;;5026693;28;20490;-81
2023/08/18 13:49:36;;;;;;;2.65;1.52;;;;;;;;;;5024194;28;20086;-80
2023/08/18 13:52:03;;;;;;;3.95;1.60;;;;;;;;;;5029050;28;20029;-80
2023/08/18 13:54:28;;;;;;;1.90;1.25;;;38.30;32.20;;;;;;5030393;28;20033;-81
2023/08/18 13:56:54;;;;;;;4.37;1.43;;;;;;;;;;5031309;28;20461;-81
2023/08/18 13:59:20;;;;;;;2.60;1.50;;;38.00;31.80;;;;;;5027714;28;20048;-81
2023/08/18 14:01:46;;;;;;;3.57;1.60;;;;;;;;;;5042755;28;20029;-81
2023/08/18 14:04:12;;;;;;;2.63;1.33;;;;;;;;;;5030678;28;20018;-81